sensor_id;sensor_type;location;lat;lon;timestamp;temperature;humidity
55329;DHT22;41205;44.264;19.884;2023-02-23T00:01:23;230.40;2252.80
55329;DHT22;41205;44.264;19.884;2023-02-23T00:03:50;205.70;2252.80
55329;DHT22;41205;44.264;19.884;2023-02-23T00:06:17;205.50;2252.80
55329;DHT22;41205;44.264;19.884;2023-02-23T00:08:43;205.30;2252.80
55329;DHT22;41205;44.264;19.884;2023-02-23T00:11:13;205.70;2252.80
55329;DHT22;41205;44.264;19.884;2023-02-23T00:13:40;205.30;2252.80
55329;DHT22;41205;44.264;19.884;2023-02-23T00:16:09;205.40;2252.80
55329;DHT22;41205;44.264;19.884;2023-02-23T00:18:37;205.20;2252.80
55329;DHT22;41205;44.264;19.884;2023-02-23T00:21:14;205.30;2252.80
55329;DHT22;41205;44.264;19.884;2023-02-23T00:23:42;205.20;2252.80
55329;DHT22;41205;44.264;19.884;2023-02-23T00:26:08;205.10;2252.80
55329;DHT22;41205;44.264;19.884;2023-02-23T00:28:34;204.90;2252.80
55329;DHT22;41205;44.264;19.884;2023-02-23T00:31:02;205.10;2252.80
55329;DHT22;41205;44.264;19.884;2023-02-23T00:33:28;205.10;2252.80
55329;DHT22;41205;44.264;19.884;2023-02-23T00:35:55;205.10;2252.80
55329;DHT22;41205;44.264;19.884;2023-02-23T00:38:20;205.00;2252.80
55329;DHT22;41205;44.264;19.884;2023-02-23T00:40:46;204.90;2252.80
55329;DHT22;41205;44.264;19.884;2023-02-23T00:43:12;204.90;2252.80
55329;DHT22;41205;44.264;19.884;2023-02-23T00:45:39;204.90;2252.80
55329;DHT22;41205;44.264;19.884;2023-02-23T00:48:05;205.00;2252.80
55329;DHT22;41205;44.264;19.884;2023-02-23T00:50:35;204.80;2252.80
55329;DHT22;41205;44.264;19.884;2023-02-23T00:53:03;204.80;2252.80
55329;DHT22;41205;44.264;19.884;2023-02-23T00:55:29;204.80;2252.80
55329;DHT22;41205;44.264;19.884;2023-02-23T00:57:55;180.10;2252.80
55329;DHT22;41205;44.264;19.884;2023-02-23T01:00:22;179.90;2252.80
55329;DHT22;41205;44.264;19.884;2023-02-23T01:02:50;179.90;2252.80
55329;DHT22;41205;44.264;19.884;2023-02-23T01:05:16;180.00;2252.80
55329;DHT22;41205;44.264;19.884;2023-02-23T01:07:42;180.00;2252.80
55329;DHT22;41205;44.264;19.884;2023-02-23T01:10:11;180.00;2252.80
55329;DHT22;41205;44.264;19.884;2023-02-23T01:12:48;180.10;2252.80
55329;DHT22;41205;44.264;19.884;2023-02-23T01:15:14;180.10;2252.80
55329;DHT22;41205;44.264;19.884;2023-02-23T01:17:40;204.80;2252.80
55329;DHT22;41205;44.264;19.884;2023-02-23T01:20:08;180.10;2252.80
55329;DHT22;41205;44.264;19.884;2023-02-23T01:22:50;180.00;2252.80
55329;DHT22;41205;44.264;19.884;2023-02-23T01:25:17;179.70;2252.80
55329;DHT22;41205;44.264;19.884;2023-02-23T01:27:43;179.80;2252.80
55329;DHT22;41205;44.264;19.884;2023-02-23T01:30:12;179.90;2252.80
55329;DHT22;41205;44.264;19.884;2023-02-23T01:32:38;179.70;2252.80
55329;DHT22;41205;44.264;19.884;2023-02-23T01:35:08;179.60;2252.80
55329;DHT22;41205;44.264;19.884;2023-02-23T01:37:35;179.60;2252.80
55329;DHT22;41205;44.264;19.884;2023-02-23T01:40:05;179.70;2252.80
55329;DHT22;41205;44.264;19.884;2023-02-23T01:43:15;179.60;2252.80
55329;DHT22;41205;44.264;19.884;2023-02-23T01:45:43;179.60;2252.80
55329;DHT22;41205;44.264;19.884;2023-02-23T01:48:14;179.50;2252.80
55329;DHT22;41205;44.264;19.884;2023-02-23T01:50:59;179.40;2252.80
55329;DHT22;41205;44.264;19.884;2023-02-23T01:53:30;179.40;2252.80
55329;DHT22;41205;44.264;19.884;2023-02-23T01:56:01;179.40;2252.80
55329;DHT22;41205;44.264;19.884;2023-02-23T01:58:31;179.30;2252.80
55329;DHT22;41205;44.264;19.884;2023-02-23T02:00:58;179.30;2252.80
55329;DHT22;41205;44.264;19.884;2023-02-23T02:03:32;154.50;2252.80
55329;DHT22;41205;44.264;19.884;2023-02-23T02:06:01;179.40;2252.80
55329;DHT22;41205;44.264;19.884;2023-02-23T02:08:31;179.30;2252.80
55329;DHT22;41205;44.264;19.884;2023-02-23T02:10:58;154.00;2252.80
55329;DHT22;41205;44.264;19.884;2023-02-23T02:13:29;179.40;2252.80
55329;DHT22;41205;44.264;19.884;2023-02-23T02:16:20;179.40;2252.80
55329;DHT22;41205;44.264;19.884;2023-02-23T02:27:29;179.20;2252.80
55329;DHT22;41205;44.264;19.884;2023-02-23T02:35:32;154.40;2252.80
55329;DHT22;41205;44.264;19.884;2023-02-23T02:40:53;179.20;2252.80
55329;DHT22;41205;44.264;19.884;2023-02-23T02:43:59;179.30;2252.80
55329;DHT22;41205;44.264;19.884;2023-02-23T02:46:30;179.20;2252.80
55329;DHT22;41205;44.264;19.884;2023-02-23T02:54:47;179.20;2252.80
55329;DHT22;41205;44.264;19.884;2023-02-23T02:57:12;179.40;2252.80
55329;DHT22;41205;44.264;19.884;2023-02-23T02:59:44;179.60;2252.80
55329;DHT22;41205;44.264;19.884;2023-02-23T03:02:31;179.70;2252.80
55329;DHT22;41205;44.264;19.884;2023-02-23T03:05:18;179.70;2252.80
55329;DHT22;41205;44.264;19.884;2023-02-23T03:11:05;179.60;2252.80
55329;DHT22;41205;44.264;19.884;2023-02-23T03:17:31;154.50;2252.80
55329;DHT22;41205;44.264;19.884;2023-02-23T03:23:35;179.40;2252.80
55329;DHT22;41205;44.264;19.884;2023-02-23T03:26:42;179.20;2252.80
55329;DHT22;41205;44.264;19.884;2023-02-23T03:29:37;154.50;2252.80
55329;DHT22;41205;44.264;19.884;2023-02-23T03:32:35;179.20;2252.80
55329;DHT22;41205;44.264;19.884;2023-02-23T03:35:22;179.20;2252.80
55329;DHT22;41205;44.264;19.884;2023-02-23T03:38:09;179.30;2252.80
55329;DHT22;41205;44.264;19.884;2023-02-23T03:40:55;154.50;2252.80
55329;DHT22;41205;44.264;19.884;2023-02-23T03:43:47;179.20;2252.80
55329;DHT22;41205;44.264;19.884;2023-02-23T03:46:32;154.50;2252.80
55329;DHT22;41205;44.264;19.884;2023-02-23T03:49:19;154.40;2252.80
55329;DHT22;41205;44.264;19.884;2023-02-23T03:52:16;154.40;2252.80
55329;DHT22;41205;44.264;19.884;2023-02-23T03:55:31;154.50;2252.80
55329;DHT22;41205;44.264;19.884;2023-02-23T03:58:22;154.50;2252.80
55329;DHT22;41205;44.264;19.884;2023-02-23T04:01:08;154.50;2252.80
55329;DHT22;41205;44.264;19.884;2023-02-23T04:03:55;154.40;2252.80
55329;DHT22;41205;44.264;19.884;2023-02-23T04:06:44;154.50;2252.80
55329;DHT22;41205;44.264;19.884;2023-02-23T04:09:30;154.50;2252.80
55329;DHT22;41205;44.264;19.884;2023-02-23T04:12:16;154.50;2252.80
55329;DHT22;41205;44.264;19.884;2023-02-23T04:17:42;154.20;2252.80
55329;DHT22;41205;44.264;19.884;2023-02-23T04:20:09;154.00;2252.80
55329;DHT22;41205;44.264;19.884;2023-02-23T04:22:36;153.90;2252.80
55329;DHT22;41205;44.264;19.884;2023-02-23T04:25:03;154.10;2252.80
55329;DHT22;41205;44.264;19.884;2023-02-23T04:27:30;154.20;2252.80
55329;DHT22;41205;44.264;19.884;2023-02-23T04:29:56;154.20;2252.80
55329;DHT22;41205;44.264;19.884;2023-02-23T04:32:22;154.30;2252.80
55329;DHT22;41205;44.264;19.884;2023-02-23T04:34:48;154.40;2252.80
55329;DHT22;41205;44.264;19.884;2023-02-23T04:37:14;154.30;2252.80
55329;DHT22;41205;44.264;19.884;2023-02-23T04:39:40;154.40;2252.80
55329;DHT22;41205;44.264;19.884;2023-02-23T04:42:07;154.00;2252.80
55329;DHT22;41205;44.264;19.884;2023-02-23T04:44:34;154.10;2252.80
55329;DHT22;41205;44.264;19.884;2023-02-23T04:47:00;154.00;2252.80
55329;DHT22;41205;44.264;19.884;2023-02-23T04:49:25;154.10;2252.80
55329;DHT22;41205;44.264;19.884;2023-02-23T04:51:51;154.10;2252.80
55329;DHT22;41205;44.264;19.884;2023-02-23T04:54:17;153.80;2252.80
55329;DHT22;41205;44.264;19.884;2023-02-23T04:56:43;153.80;2252.80
55329;DHT22;41205;44.264;19.884;2023-02-23T04:59:08;153.90;2252.80
55329;DHT22;41205;44.264;19.884;2023-02-23T05:01:34;153.90;2252.80
55329;DHT22;41205;44.264;19.884;2023-02-23T05:04:01;153.90;2252.80
55329;DHT22;41205;44.264;19.884;2023-02-23T05:06:27;154.00;2252.80
55329;DHT22;41205;44.264;19.884;2023-02-23T05:08:53;154.00;2252.80
55329;DHT22;41205;44.264;19.884;2023-02-23T05:11:18;154.00;2252.80
55329;DHT22;41205;44.264;19.884;2023-02-23T05:13:44;154.00;2252.80
55329;DHT22;41205;44.264;19.884;2023-02-23T05:16:10;154.00;2252.80
55329;DHT22;41205;44.264;19.884;2023-02-23T05:18:35;154.00;2252.80
55329;DHT22;41205;44.264;19.884;2023-02-23T05:21:03;153.90;2252.80
55329;DHT22;41205;44.264;19.884;2023-02-23T05:23:31;153.80;2252.80
55329;DHT22;41205;44.264;19.884;2023-02-23T05:26:02;154.20;2252.80
55329;DHT22;41205;44.264;19.884;2023-02-23T05:28:29;154.20;2252.80
55329;DHT22;41205;44.264;19.884;2023-02-23T05:30:54;154.10;2252.80
55329;DHT22;41205;44.264;19.884;2023-02-23T05:33:20;154.20;2252.80
55329;DHT22;41205;44.264;19.884;2023-02-23T05:35:47;154.30;2252.80
55329;DHT22;41205;44.264;19.884;2023-02-23T05:38:13;154.40;2252.80
55329;DHT22;41205;44.264;19.884;2023-02-23T05:40:38;154.40;2252.80
55329;DHT22;41205;44.264;19.884;2023-02-23T05:43:05;154.50;2252.80
55329;DHT22;41205;44.264;19.884;2023-02-23T05:45:30;179.20;2252.80
55329;DHT22;41205;44.264;19.884;2023-02-23T05:47:57;179.20;2252.80
55329;DHT22;41205;44.264;19.884;2023-02-23T05:50:24;154.40;2252.80
55329;DHT22;41205;44.264;19.884;2023-02-23T05:52:49;154.20;2252.80
55329;DHT22;41205;44.264;19.884;2023-02-23T05:55:15;154.10;2252.80
55329;DHT22;41205;44.264;19.884;2023-02-23T05:57:41;154.00;2252.80
55329;DHT22;41205;44.264;19.884;2023-02-23T06:00:09;153.90;2252.80
55329;DHT22;41205;44.264;19.884;2023-02-23T06:02:34;154.00;2252.80
55329;DHT22;41205;44.264;19.884;2023-02-23T06:05:01;154.20;2252.80
55329;DHT22;41205;44.264;19.884;2023-02-23T06:07:26;154.20;2252.80
55329;DHT22;41205;44.264;19.884;2023-02-23T06:09:52;154.10;2252.80
55329;DHT22;41205;44.264;19.884;2023-02-23T06:12:18;154.10;2252.80
55329;DHT22;41205;44.264;19.884;2023-02-23T06:14:43;154.20;2252.80
55329;DHT22;41205;44.264;19.884;2023-02-23T06:17:10;154.40;2252.80
55329;DHT22;41205;44.264;19.884;2023-02-23T06:19:35;179.40;2252.80
55329;DHT22;41205;44.264;19.884;2023-02-23T06:22:01;179.80;2252.80
55329;DHT22;41205;44.264;19.884;2023-02-23T06:24:27;180.10;2252.80
55329;DHT22;41205;44.264;19.884;2023-02-23T06:26:52;205.00;2252.80
55329;DHT22;41205;44.264;19.884;2023-02-23T06:29:18;205.20;2252.80
55329;DHT22;41205;44.264;19.884;2023-02-23T06:31:44;205.40;2252.80
55329;DHT22;41205;44.264;19.884;2023-02-23T06:34:09;205.60;2252.80
55329;DHT22;41205;44.264;19.884;2023-02-23T06:36:36;205.70;2252.80
55329;DHT22;41205;44.264;19.884;2023-02-23T06:39:02;205.70;2252.80
55329;DHT22;41205;44.264;19.884;2023-02-23T06:41:29;205.70;2252.80
55329;DHT22;41205;44.264;19.884;2023-02-23T06:43:56;205.70;2252.80
55329;DHT22;41205;44.264;19.884;2023-02-23T06:46:21;230.40;2252.80
55329;DHT22;41205;44.264;19.884;2023-02-23T06:48:47;230.40;2252.80
55329;DHT22;41205;44.264;19.884;2023-02-23T06:51:13;230.50;2252.80
55329;DHT22;41205;44.264;19.884;2023-02-23T06:53:39;205.70;2252.80
55329;DHT22;41205;44.264;19.884;2023-02-23T06:56:07;205.70;2252.80
55329;DHT22;41205;44.264;19.884;2023-02-23T06:58:33;205.70;2252.80
55329;DHT22;41205;44.264;19.884;2023-02-23T07:00:58;205.60;2252.80
55329;DHT22;41205;44.264;19.884;2023-02-23T07:03:25;205.20;2252.80
55329;DHT22;41205;44.264;19.884;2023-02-23T07:05:51;205.20;2252.80
55329;DHT22;41205;44.264;19.884;2023-02-23T07:08:17;205.40;2252.80
55329;DHT22;41205;44.264;19.884;2023-02-23T07:10:43;205.50;2252.80
55329;DHT22;41205;44.264;19.884;2023-02-23T07:13:09;230.40;2252.80
55329;DHT22;41205;44.264;19.884;2023-02-23T07:15:38;230.40;2252.80
55329;DHT22;41205;44.264;19.884;2023-02-23T07:18:04;230.60;2252.80
55329;DHT22;41205;44.264;19.884;2023-02-23T07:20:30;230.90;2252.80
55329;DHT22;41205;44.264;19.884;2023-02-23T07:22:56;231.10;2252.80
55329;DHT22;41205;44.264;19.884;2023-02-23T07:25:22;231.00;2252.80
55329;DHT22;41205;44.264;19.884;2023-02-23T07:27:48;230.80;2252.80
55329;DHT22;41205;44.264;19.884;2023-02-23T07:30:14;230.60;2252.80
55329;DHT22;41205;44.264;19.884;2023-02-23T07:32:40;230.60;2252.80
55329;DHT22;41205;44.264;19.884;2023-02-23T07:35:06;230.70;2252.80
55329;DHT22;41205;44.264;19.884;2023-02-23T07:37:32;231.00;2252.80
55329;DHT22;41205;44.264;19.884;2023-02-23T07:39:58;256.20;2252.80
55329;DHT22;41205;44.264;19.884;2023-02-23T07:42:23;307.30;2304.00
55329;DHT22;41205;44.264;19.884;2023-02-23T07:44:51;333.00;2329.60
55329;DHT22;41205;44.264;19.884;2023-02-23T07:47:16;333.60;2329.60
55329;DHT22;41205;44.264;19.884;2023-02-23T07:49:42;333.40;2329.60
55329;DHT22;41205;44.264;19.884;2023-02-23T07:52:08;308.10;2304.00
55329;DHT22;41205;44.264;19.884;2023-02-23T07:54:34;307.60;2304.00
55329;DHT22;41205;44.264;19.884;2023-02-23T07:56:59;307.30;2304.00
55329;DHT22;41205;44.264;19.884;2023-02-23T07:59:25;282.40;2278.40
55329;DHT22;41205;44.264;19.884;2023-02-23T08:01:51;307.40;2304.00
55329;DHT22;41205;44.264;19.884;2023-02-23T08:04:17;332.80;2329.60
55329;DHT22;41205;44.264;19.884;2023-02-23T08:06:43;333.60;2329.60
55329;DHT22;41205;44.264;19.884;2023-02-23T08:09:10;384.40;2329.60
55329;DHT22;41205;44.264;19.884;2023-02-23T08:11:36;384.90;2176.00
55329;DHT22;41205;44.264;19.884;2023-02-23T08:14:02;435.40;2073.60
55329;DHT22;41205;44.264;19.884;2023-02-23T08:16:29;461.60;1945.60
55329;DHT22;41205;44.264;19.884;2023-02-23T08:18:59;512.30;1792.00
55329;DHT22;41205;44.264;19.884;2023-02-23T08:21:26;537.80;1715.20
55329;DHT22;41205;44.264;19.884;2023-02-23T08:23:53;563.40;1664.00
55329;DHT22;41205;44.264;19.884;2023-02-23T08:26:20;538.00;1664.00
55329;DHT22;41205;44.264;19.884;2023-02-23T08:28:46;538.10;1664.00
55329;DHT22;41205;44.264;19.884;2023-02-23T08:31:13;538.00;1664.00
55329;DHT22;41205;44.264;19.884;2023-02-23T08:33:39;537.90;1689.60
55329;DHT22;41205;44.264;19.884;2023-02-23T08:36:08;512.90;1664.00
55329;DHT22;41205;44.264;19.884;2023-02-23T08:38:34;538.50;1638.40
55329;DHT22;41205;44.264;19.884;2023-02-23T08:41:04;563.50;1612.80
55329;DHT22;41205;44.264;19.884;2023-02-23T08:43:30;563.60;1612.80
55329;DHT22;41205;44.264;19.884;2023-02-23T08:45:56;538.50;1612.80
55329;DHT22;41205;44.264;19.884;2023-02-23T08:48:22;588.80;1587.20
55329;DHT22;41205;44.264;19.884;2023-02-23T08:50:49;614.40;1510.40
55329;DHT22;41205;44.264;19.884;2023-02-23T08:53:15;538.50;1587.20
55329;DHT22;41205;44.264;19.884;2023-02-23T08:55:41;538.50;1587.20
55329;DHT22;41205;44.264;19.884;2023-02-23T08:58:08;512.30;1664.00
55329;DHT22;41205;44.264;19.884;2023-02-23T09:00:36;487.00;1715.20
55329;DHT22;41205;44.264;19.884;2023-02-23T09:03:04;461.40;1792.00
55329;DHT22;41205;44.264;19.884;2023-02-23T09:05:31;486.70;1766.40
55329;DHT22;41205;44.264;19.884;2023-02-23T09:07:57;537.90;1664.00
55329;DHT22;41205;44.264;19.884;2023-02-23T09:10:23;537.90;1638.40
55329;DHT22;41205;44.264;19.884;2023-02-23T09:12:52;538.00;1612.80
55329;DHT22;41205;44.264;19.884;2023-02-23T09:15:18;563.70;1587.20
55329;DHT22;41205;44.264;19.884;2023-02-23T09:17:44;589.70;1484.80
55329;DHT22;41205;44.264;19.884;2023-02-23T09:20:12;589.40;1510.40
55329;DHT22;41205;44.264;19.884;2023-02-23T09:22:41;614.90;1459.20
55329;DHT22;41205;44.264;19.884;2023-02-23T09:25:10;614.70;1459.20
55329;DHT22;41205;44.264;19.884;2023-02-23T09:27:39;589.60;1484.80
55329;DHT22;41205;44.264;19.884;2023-02-23T09:30:05;614.60;1459.20
55329;DHT22;41205;44.264;19.884;2023-02-23T09:32:31;563.70;1536.00
55329;DHT22;41205;44.264;19.884;2023-02-23T09:34:57;563.60;1561.60
55329;DHT22;41205;44.264;19.884;2023-02-23T09:37:22;538.40;1561.60
55329;DHT22;41205;44.264;19.884;2023-02-23T09:39:49;512.20;1612.80
55329;DHT22;41205;44.264;19.884;2023-02-23T09:42:33;486.50;1715.20
55329;DHT22;41205;44.264;19.884;2023-02-23T09:47:43;460.80;1792.00
55329;DHT22;41205;44.264;19.884;2023-02-23T09:50:30;435.60;1843.20
55329;DHT22;41205;44.264;19.884;2023-02-23T09:53:42;435.90;1817.60
55329;DHT22;41205;44.264;19.884;2023-02-23T09:55:49;435.30;1868.80
55329;DHT22;41205;44.264;19.884;2023-02-23T09:58:25;435.20;1894.40
55329;DHT22;41205;44.264;19.884;2023-02-23T10:03:37;410.20;1945.60
55329;DHT22;41205;44.264;19.884;2023-02-23T10:06:10;409.80;1971.20
55329;DHT22;41205;44.264;19.884;2023-02-23T10:14:33;410.00;1971.20
55329;DHT22;41205;44.264;19.884;2023-02-23T10:22:47;409.80;1996.80
55329;DHT22;41205;44.264;19.884;2023-02-23T10:25:18;410.20;1996.80
55329;DHT22;41205;44.264;19.884;2023-02-23T10:27:49;409.80;1971.20
55329;DHT22;41205;44.264;19.884;2023-02-23T10:30:27;410.00;1971.20
55329;DHT22;41205;44.264;19.884;2023-02-23T10:33:20;409.80;1996.80
55329;DHT22;41205;44.264;19.884;2023-02-23T10:35:47;410.00;1996.80
55329;DHT22;41205;44.264;19.884;2023-02-23T10:38:17;410.20;1971.20
55329;DHT22;41205;44.264;19.884;2023-02-23T10:40:52;410.40;1971.20
55329;DHT22;41205;44.264;19.884;2023-02-23T10:43:19;409.90;1996.80
55329;DHT22;41205;44.264;19.884;2023-02-23T10:45:49;410.20;1971.20
55329;DHT22;41205;44.264;19.884;2023-02-23T10:48:21;410.50;1920.00
55329;DHT22;41205;44.264;19.884;2023-02-23T10:50:49;435.20;1945.60
55329;DHT22;41205;44.264;19.884;2023-02-23T10:53:24;435.30;1920.00
55329;DHT22;41205;44.264;19.884;2023-02-23T10:56:17;410.40;1920.00
55329;DHT22;41205;44.264;19.884;2023-02-23T10:58:54;435.20;1920.00
55329;DHT22;41205;44.264;19.884;2023-02-23T11:01:33;435.40;1920.00
55329;DHT22;41205;44.264;19.884;2023-02-23T11:04:30;435.30;1894.40
55329;DHT22;41205;44.264;19.884;2023-02-23T11:07:14;435.40;1894.40
55329;DHT22;41205;44.264;19.884;2023-02-23T11:09:41;435.50;1868.80
55329;DHT22;41205;44.264;19.884;2023-02-23T11:14:51;435.40;1868.80
55329;DHT22;41205;44.264;19.884;2023-02-23T11:17:35;435.60;1868.80
55329;DHT22;41205;44.264;19.884;2023-02-23T11:20:09;435.60;1868.80
55329;DHT22;41205;44.264;19.884;2023-02-23T11:22:43;435.80;1868.80
55329;DHT22;41205;44.264;19.884;2023-02-23T11:25:29;435.70;1868.80
55329;DHT22;41205;44.264;19.884;2023-02-23T11:27:56;435.20;1894.40
55329;DHT22;41205;44.264;19.884;2023-02-23T11:30:28;435.20;1920.00
55329;DHT22;41205;44.264;19.884;2023-02-23T11:32:57;435.40;1894.40
55329;DHT22;41205;44.264;19.884;2023-02-23T11:35:25;435.20;1920.00
55329;DHT22;41205;44.264;19.884;2023-02-23T11:37:52;435.30;1894.40
55329;DHT22;41205;44.264;19.884;2023-02-23T11:45:33;435.60;1868.80
55329;DHT22;41205;44.264;19.884;2023-02-23T11:48:03;435.60;1894.40
55329;DHT22;41205;44.264;19.884;2023-02-23T11:50:34;435.60;1894.40
55329;DHT22;41205;44.264;19.884;2023-02-23T11:53:05;435.50;1894.40
55329;DHT22;41205;44.264;19.884;2023-02-23T11:55:32;435.60;1868.80
55329;DHT22;41205;44.264;19.884;2023-02-23T12:00:34;435.30;1920.00
55329;DHT22;41205;44.264;19.884;2023-02-23T12:03:00;435.30;1894.40
55329;DHT22;41205;44.264;19.884;2023-02-23T12:05:31;435.20;1894.40
55329;DHT22;41205;44.264;19.884;2023-02-23T12:08:16;410.50;1894.40
55329;DHT22;41205;44.264;19.884;2023-02-23T12:10:52;435.40;1894.40
55329;DHT22;41205;44.264;19.884;2023-02-23T12:13:44;435.40;1894.40
55329;DHT22;41205;44.264;19.884;2023-02-23T12:16:19;435.50;1894.40
55329;DHT22;41205;44.264;19.884;2023-02-23T12:19:21;435.60;1868.80
55329;DHT22;41205;44.264;19.884;2023-02-23T12:27:50;435.60;1868.80
55329;DHT22;41205;44.264;19.884;2023-02-23T12:33:36;435.80;1868.80
55329;DHT22;41205;44.264;19.884;2023-02-23T12:36:48;435.90;1868.80
55329;DHT22;41205;44.264;19.884;2023-02-23T12:39:18;435.80;1868.80
55329;DHT22;41205;44.264;19.884;2023-02-23T12:50:01;436.00;1843.20
55329;DHT22;41205;44.264;19.884;2023-02-23T12:52:36;435.90;1843.20
55329;DHT22;41205;44.264;19.884;2023-02-23T12:55:11;436.10;1843.20
55329;DHT22;41205;44.264;19.884;2023-02-23T12:57:43;436.00;1843.20
55329;DHT22;41205;44.264;19.884;2023-02-23T13:00:38;436.10;1843.20
55329;DHT22;41205;44.264;19.884;2023-02-23T13:06:16;435.80;1843.20
55329;DHT22;41205;44.264;19.884;2023-02-23T13:11:15;435.80;1868.80
55329;DHT22;41205;44.264;19.884;2023-02-23T13:13:51;436.00;1843.20
55329;DHT22;41205;44.264;19.884;2023-02-23T13:16:33;435.80;1843.20
55329;DHT22;41205;44.264;19.884;2023-02-23T13:19:16;435.80;1843.20
55329;DHT22;41205;44.264;19.884;2023-02-23T13:21:52;436.10;1843.20
55329;DHT22;41205;44.264;19.884;2023-02-23T13:24:34;436.10;1843.20
55329;DHT22;41205;44.264;19.884;2023-02-23T13:29:39;435.80;1843.20
55329;DHT22;41205;44.264;19.884;2023-02-23T13:32:17;435.90;1843.20
55329;DHT22;41205;44.264;19.884;2023-02-23T13:37:18;435.90;1843.20
55329;DHT22;41205;44.264;19.884;2023-02-23T13:42:33;435.60;1843.20
55329;DHT22;41205;44.264;19.884;2023-02-23T13:48:11;435.60;1868.80
55329;DHT22;41205;44.264;19.884;2023-02-23T13:56:48;435.90;1843.20
55329;DHT22;41205;44.264;19.884;2023-02-23T13:59:22;435.90;1843.20
55329;DHT22;41205;44.264;19.884;2023-02-23T14:01:50;435.80;1843.20
55329;DHT22;41205;44.264;19.884;2023-02-23T14:04:32;435.90;1843.20
55329;DHT22;41205;44.264;19.884;2023-02-23T14:09:42;435.80;1868.80
55329;DHT22;41205;44.264;19.884;2023-02-23T14:13:02;435.80;1843.20
55329;DHT22;41205;44.264;19.884;2023-02-23T14:18:00;435.50;1868.80
55329;DHT22;41205;44.264;19.884;2023-02-23T14:28:33;435.50;1868.80
55329;DHT22;41205;44.264;19.884;2023-02-23T14:41:54;435.40;1868.80
55329;DHT22;41205;44.264;19.884;2023-02-23T14:44:28;435.50;1868.80
55329;DHT22;41205;44.264;19.884;2023-02-23T14:47:07;435.60;1868.80
55329;DHT22;41205;44.264;19.884;2023-02-23T14:49:42;435.40;1868.80
55329;DHT22;41205;44.264;19.884;2023-02-23T14:52:16;435.30;1894.40
55329;DHT22;41205;44.264;19.884;2023-02-23T14:54:44;435.30;1894.40
55329;DHT22;41205;44.264;19.884;2023-02-23T14:57:19;435.30;1894.40
55329;DHT22;41205;44.264;19.884;2023-02-23T15:00:00;435.20;1894.40
55329;DHT22;41205;44.264;19.884;2023-02-23T15:02:28;435.20;1894.40
55329;DHT22;41205;44.264;19.884;2023-02-23T15:04:55;410.50;1894.40
55329;DHT22;41205;44.264;19.884;2023-02-23T15:07:38;410.30;1894.40
55329;DHT22;41205;44.264;19.884;2023-02-23T15:10:23;410.30;1920.00
55329;DHT22;41205;44.264;19.884;2023-02-23T15:12:50;410.30;1920.00
55329;DHT22;41205;44.264;19.884;2023-02-23T15:15:18;410.20;1920.00
55329;DHT22;41205;44.264;19.884;2023-02-23T15:17:47;410.30;1920.00
55329;DHT22;41205;44.264;19.884;2023-02-23T15:20:16;410.30;1920.00
55329;DHT22;41205;44.264;19.884;2023-02-23T15:22:46;410.20;1920.00
55329;DHT22;41205;44.264;19.884;2023-02-23T15:25:24;410.30;1920.00
55329;DHT22;41205;44.264;19.884;2023-02-23T15:27:52;410.20;1945.60
55329;DHT22;41205;44.264;19.884;2023-02-23T15:30:31;410.10;1945.60
55329;DHT22;41205;44.264;19.884;2023-02-23T15:33:11;410.00;1945.60
55329;DHT22;41205;44.264;19.884;2023-02-23T15:36:14;409.80;1945.60
55329;DHT22;41205;44.264;19.884;2023-02-23T15:38:44;409.70;1971.20
55329;DHT22;41205;44.264;19.884;2023-02-23T15:41:35;409.60;1971.20
55329;DHT22;41205;44.264;19.884;2023-02-23T15:44:24;384.90;1945.60
55329;DHT22;41205;44.264;19.884;2023-02-23T15:46:57;384.90;1971.20
55329;DHT22;41205;44.264;19.884;2023-02-23T15:49:29;384.80;1971.20
55329;DHT22;41205;44.264;19.884;2023-02-23T15:51:59;384.70;1996.80
55329;DHT22;41205;44.264;19.884;2023-02-23T15:54:29;384.70;1996.80
55329;DHT22;41205;44.264;19.884;2023-02-23T15:57:01;384.60;2022.40
55329;DHT22;41205;44.264;19.884;2023-02-23T15:59:29;384.40;2022.40
55329;DHT22;41205;44.264;19.884;2023-02-23T16:01:59;384.40;2048.00
55329;DHT22;41205;44.264;19.884;2023-02-23T16:04:37;384.30;2048.00
55329;DHT22;41205;44.264;19.884;2023-02-23T16:07:20;384.30;2048.00
55329;DHT22;41205;44.264;19.884;2023-02-23T16:12:30;384.10;2073.60
55329;DHT22;41205;44.264;19.884;2023-02-23T16:15:04;384.00;2099.20
55329;DHT22;41205;44.264;19.884;2023-02-23T16:17:38;384.00;2099.20
55329;DHT22;41205;44.264;19.884;2023-02-23T16:20:25;359.30;2099.20
55329;DHT22;41205;44.264;19.884;2023-02-23T16:22:53;359.30;2099.20
55329;DHT22;41205;44.264;19.884;2023-02-23T16:25:21;359.30;2124.80
55329;DHT22;41205;44.264;19.884;2023-02-23T16:27:56;359.20;2124.80
55329;DHT22;41205;44.264;19.884;2023-02-23T16:33:22;359.10;2150.40
55329;DHT22;41205;44.264;19.884;2023-02-23T16:35:51;359.10;2150.40
55329;DHT22;41205;44.264;19.884;2023-02-23T16:38:26;359.00;2176.00
55329;DHT22;41205;44.264;19.884;2023-02-23T16:40:52;358.90;2176.00
55329;DHT22;41205;44.264;19.884;2023-02-23T16:43:18;358.80;2176.00
55329;DHT22;41205;44.264;19.884;2023-02-23T16:45:44;358.80;2201.60
55329;DHT22;41205;44.264;19.884;2023-02-23T16:48:17;358.70;2227.20
55329;DHT22;41205;44.264;19.884;2023-02-23T16:50:43;358.70;2227.20
55329;DHT22;41205;44.264;19.884;2023-02-23T16:53:11;358.60;2278.40
55329;DHT22;41205;44.264;19.884;2023-02-23T16:55:48;358.50;2278.40
55329;DHT22;41205;44.264;19.884;2023-02-23T16:58:17;358.50;2304.00
55329;DHT22;41205;44.264;19.884;2023-02-23T17:00:44;358.50;2329.60
55329;DHT22;41205;44.264;19.884;2023-02-23T17:03:27;358.40;2329.60
55329;DHT22;41205;44.264;19.884;2023-02-23T17:05:55;333.70;2329.60
55329;DHT22;41205;44.264;19.884;2023-02-23T17:08:21;333.70;2329.60
55329;DHT22;41205;44.264;19.884;2023-02-23T17:10:48;333.60;2329.60
55329;DHT22;41205;44.264;19.884;2023-02-23T17:13:24;333.50;2329.60
55329;DHT22;41205;44.264;19.884;2023-02-23T17:15:52;333.50;2329.60